Time;durP1;ratioP1;P1;durP2;ratioP2;P2;SDS_P1;SDS_P2;PMS_P1;PMS_P2;Temp;Humidity;BMP_temperature;BMP_pressure;BME280_temperature;BME280_humidity;BME280_pressure;Samples;Min_cycle;Max_cycle;Signal;HPM_P1;HPM_P2
2023/12/22 00:02:05;;;;;;;;;;;;;;;3.93;100.00;98674.25;5001825;28;19925;-85
2023/12/22 00:04:31;;;;;;;;;;;;;;;4.02;100.00;98662.59;5001970;28;20385;-84
2023/12/22 00:06:56;;;;;;;;;;;;;;;3.90;100.00;98668.25;5002124;28;20378;-84
2023/12/22 00:09:21;;;;;;;;;;;;;;;3.85;100.00;98667.56;5003037;28;19917;-85
2023/12/22 00:11:46;;;;;;;;;;;;;;;3.86;100.00;98669.25;4999824;28;19928;-83
2023/12/22 00:14:12;;;;;;;;;;;;;;;3.85;100.00;98665.78;5002267;28;20296;-85
2023/12/22 00:16:37;;;;;;;;;;;;;;;3.86;100.00;98666.63;5000323;28;20012;-84
2023/12/22 00:19:03;;;;;;;;;;;;;;;3.96;100.00;98679.38;5001706;28;20376;-84
2023/12/22 00:21:28;;;;;;;;;;;;;;;3.89;100.00;98662.13;5002657;28;19922;-82
2023/12/22 00:23:53;;;;;;;;;;;;;;;3.84;100.00;98655.34;5002568;28;19914;-85
2023/12/22 00:26:18;;;;;;;;;;;;;;;3.85;100.00;98659.69;5002536;28;19921;-84
2023/12/22 00:28:44;;;;;;;;;;;;;;;3.86;100.00;98661.38;5002774;28;19922;-84
2023/12/22 00:31:12;;;;;;;;;;;;;;;3.89;100.00;98674.38;4997938;28;19922;-83
2023/12/22 00:33:37;;;;;;;;;;;;;;;3.81;100.00;98662.41;5001236;28;19972;-83
2023/12/22 00:36:02;;;;;;;;;;;;;;;3.86;100.00;98680.59;5001214;28;20291;-89
2023/12/22 00:38:28;;;;;;;;;;;;;;;3.84;100.00;98677.16;5002376;28;19913;-87
2023/12/22 00:40:53;;;;;;;;;;;;;;;3.82;100.00;98671.97;5002140;28;19928;-85
2023/12/22 00:43:18;;;;;;;;;;;;;;;3.82;100.00;98676.38;5001915;28;19918;-84
2023/12/22 00:45:43;;;;;;;;;;;;;;;3.87;100.00;98678.84;5000261;28;20296;-86
2023/12/22 00:48:08;;;;;;;;;;;;;;;3.88;100.00;98680.53;5000133;28;19922;-82
2023/12/22 00:50:34;;;;;;;;;;;;;;;3.92;100.00;98682.16;5000720;28;20381;-85
2023/12/22 00:52:59;;;;;;;;;;;;;;;3.87;100.00;98684.06;5002168;28;19917;-82
2023/12/22 00:55:24;;;;;;;;;;;;;;;3.88;100.00;98670.03;5001501;28;19949;-82
2023/12/22 00:57:49;;;;;;;;;;;;;;;3.82;100.00;98685.06;5001067;28;19922;-83
2023/12/22 01:00:15;;;;;;;;;;;;;;;3.85;100.00;98683.28;5000880;28;19922;-83
2023/12/22 01:02:40;;;;;;;;;;;;;;;3.88;100.00;98702.38;5002391;28;19925;-82
2023/12/22 01:05:06;;;;;;;;;;;;;;;3.80;100.00;98717.50;5001775;28;19917;-82
2023/12/22 01:07:31;;;;;;;;;;;;;;;3.79;100.00;98713.16;5001994;28;20412;-83
2023/12/22 01:10:01;;;;;;;;;;;;;;;3.82;100.00;98713.06;5003072;28;19928;-82
2023/12/22 01:12:26;;;;;;;;;;;;;;;3.90;100.00;98695.31;5000476;28;19922;-83
2023/12/22 01:14:51;;;;;;;;;;;;;;;3.89;100.00;98690.13;5000425;28;19929;-80
2023/12/22 01:17:17;;;;;;;;;;;;;;;3.80;100.00;98694.75;5001607;28;19922;-82
2023/12/22 01:19:42;;;;;;;;;;;;;;;3.75;100.00;98696.69;5001681;28;20377;-83
2023/12/22 01:22:07;;;;;;;;;;;;;;;3.90;100.00;98673.50;5002409;28;19929;-92
2023/12/22 01:24:32;;;;;;;;;;;;;;;3.83;100.00;98683.31;5002175;28;20372;-84
2023/12/22 01:26:58;;;;;;;;;;;;;;;3.78;100.00;98716.66;5001959;28;19957;-91
2023/12/22 01:29:24;;;;;;;;;;;;;;;3.80;100.00;98718.34;5001149;28;19960;-83
2023/12/22 01:31:49;;;;;;;;;;;;;;;3.75;100.00;98709.78;5000060;28;19972;-79
2023/12/22 01:34:14;;;;;;;;;;;;;;;3.80;100.00;98718.34;5003050;28;20016;-80
2023/12/22 01:36:39;;;;;;;;;;;;;;;3.90;100.00;98716.28;5002494;28;19926;-80
2023/12/22 01:39:04;;;;;;;;;;;;;;;4.06;100.00;98703.53;5002138;28;19921;-79
2023/12/22 01:41:30;;;;;;;;;;;;;;;4.03;100.00;98715.88;5002155;28;19925;-79
2023/12/22 01:43:55;;;;;;;;;;;;;;;4.01;100.00;98697.56;5002640;28;19918;-80
2023/12/22 01:46:21;;;;;;;;;;;;;;;3.93;100.00;98694.38;5001265;28;20285;-79
2023/12/22 01:48:46;;;;;;;;;;;;;;;3.90;100.00;98699.69;5002063;28;19965;-80
2023/12/22 01:51:12;;;;;;;;;;;;;;;3.96;100.00;98699.50;5002266;28;19921;-81
2023/12/22 06:17:47;;;;;;;;;;;;;;;3.50;100.00;98793.50;5019301;28;20010;-88
2023/12/22 06:20:12;;;;;;;;;;;;;;;3.63;100.00;98792.22;5025428;28;20383;-85
2023/12/22 06:22:40;;;;;;;;;;;;;;;3.58;100.00;98798.53;5025341;28;19944;-86
2023/12/22 06:25:07;;;;;;;;;;;;;;;3.58;100.00;98803.75;5039734;28;19945;-86
2023/12/22 06:27:33;;;;;;;;;;;;;;;3.68;100.00;98814.81;5025544;28;19940;-86
2023/12/22 06:29:58;;;;;;;;;;;;;;;3.61;100.00;98829.88;5022855;28;20376;-87
2023/12/22 06:32:24;;;;;;;;;;;;;;;3.66;100.00;98825.34;5024936;28;19921;-88
2023/12/22 06:34:49;;;;;;;;;;;;;;;3.66;100.00;98832.34;5025607;28;20020;-86
2023/12/22 06:37:17;;;;;;;;;;;;;;;3.72;100.00;98829.53;5025655;28;19928;-89
2023/12/22 06:39:42;;;;;;;;;;;;;;;3.67;100.00;98845.41;5023167;28;19913;-91
2023/12/22 06:42:10;;;;;;;;;;;;;;;3.69;100.00;98840.13;5025930;28;19922;-88
2023/12/22 06:44:36;;;;;;;;;;;;;;;3.64;100.00;98830.63;5024161;28;20004;-91
2023/12/22 06:47:02;;;;;;;;;;;;;;;3.60;100.00;98828.13;5025207;28;20040;-90
2023/12/22 06:49:27;;;;;;;;;;;;;;;3.58;100.00;98827.34;5025471;28;20059;-86
2023/12/22 06:51:52;;;;;;;;;;;;;;;3.61;100.00;98827.25;5025030;28;20000;-89
2023/12/22 06:54:17;;;;;;;;;;;;;;;3.53;100.00;98808.28;5023184;28;20018;-90
2023/12/22 06:56:42;;;;;;;;;;;;;;;3.52;100.00;98814.41;5024789;28;19921;-89
2023/12/22 06:59:11;;;;;;;;;;;;;;;3.55;100.00;98820.41;5022258;28;19918;-90
2023/12/22 07:01:36;;;;;;;;;;;;;;;3.52;100.00;98814.41;5024420;28;19917;-88
2023/12/22 07:04:02;;;;;;;;;;;;;;;3.54;100.00;98817.84;5023408;28;19917;-92
2023/12/22 07:06:29;;;;;;;;;;;;;;;3.52;100.00;98824.91;5025424;28;19971;-89
2023/12/22 07:09:12;;;;;;;;;;;;;;;3.75;100.00;98830.31;5023029;28;20291;-91
2023/12/22 07:11:45;;;;;;;;;;;;;;;3.70;100.00;98834.84;5040185;28;19917;-88
2023/12/22 07:14:10;;;;;;;;;;;;;;;3.61;100.00;98835.97;5023406;28;20000;-85
2023/12/22 07:16:36;;;;;;;;;;;;;;;3.60;100.00;98828.13;5024175;28;20063;-87
2023/12/22 07:19:01;;;;;;;;;;;;;;;3.60;100.00;98825.53;5023552;28;19972;-86
2023/12/22 07:21:26;;;;;;;;;;;;;;;3.61;100.00;98824.63;5023308;28;19913;-88
2023/12/22 07:23:52;;;;;;;;;;;;;;;3.56;100.00;98826.53;5024227;28;19928;-88
2023/12/22 07:26:17;;;;;;;;;;;;;;;3.61;100.00;98824.63;5022841;28;19919;-88
2023/12/22 07:28:42;;;;;;;;;;;;;;;3.65;100.00;98826.22;5024593;28;20008;-87
2023/12/22 07:31:08;;;;;;;;;;;;;;;3.68;100.00;98825.28;5021399;28;19957;-84
2023/12/22 07:33:33;;;;;;;;;;;;;;;3.64;100.00;98828.00;5024662;28;19968;-89
2023/12/22 07:35:58;;;;;;;;;;;;;;;3.69;100.00;98827.88;5023783;28;19917;-88
2023/12/22 07:38:24;;;;;;;;;;;;;;;3.69;100.00;98837.50;5024144;28;20426;-88
2023/12/22 07:40:49;;;;;;;;;;;;;;;3.70;100.00;98833.97;5024019;28;19917;-90
2023/12/22 07:43:15;;;;;;;;;;;;;;;3.64;100.00;98846.34;5022929;28;19921;-90
2023/12/22 07:45:40;;;;;;;;;;;;;;;3.68;100.00;98846.25;5023026;28;19921;-90
2023/12/22 07:48:06;;;;;;;;;;;;;;;3.67;100.00;98858.50;5024315;28;20466;-89
2023/12/22 07:50:31;;;;;;;;;;;;;;;3.60;100.00;98849.09;5021576;28;20112;-88
2023/12/22 07:52:58;;;;;;;;;;;;;;;3.58;100.00;98850.91;5023438;28;19921;-87
2023/12/22 07:55:23;;;;;;;;;;;;;;;3.74;100.00;98865.28;5024016;28;19964;-86
2023/12/22 07:57:49;;;;;;;;;;;;;;;3.72;100.00;98879.31;5023971;28;20417;-86
2023/12/22 08:00:14;;;;;;;;;;;;;;;3.69;100.00;98874.19;5022034;28;20384;-87
2023/12/22 08:02:39;;;;;;;;;;;;;;;3.68;100.00;98859.34;5023851;28;20003;-91
2023/12/22 08:49:19;;;;;;;;;;;;;;;3.55;100.00;98843.16;4944615;28;19938;-85
2023/12/22 08:51:44;;;;;;;;;;;;;;;3.62;100.00;98858.63;4948409;28;19922;-88
2023/12/22 08:54:10;;;;;;;;;;;;;;;3.65;100.00;98865.53;4943374;28;20393;-83
2023/12/22 08:56:35;;;;;;;;;;;;;;;3.58;100.00;98861.41;4945358;28;19958;-81
2023/12/22 08:59:00;;;;;;;;;;;;;;;3.66;100.00;98851.53;4943870;28;20372;-84
2023/12/22 09:01:26;;;;;;;;;;;;;;;3.60;100.00;98857.81;4943206;28;20301;-83
2023/12/22 09:03:52;;;;;;;;;;;;;;;3.58;100.00;98861.41;4944562;29;19925;-84
2023/12/22 09:06:19;;;;;;;;;;;;;;;3.56;100.00;98877.16;4943171;29;20266;-87
2023/12/22 09:08:44;;;;;;;;;;;;;;;3.62;100.00;98868.25;4944992;28;19925;-86
2023/12/22 09:11:14;;;;;;;;;;;;;;;3.56;100.00;98857.97;4943706;28;20009;-82
2023/12/22 09:13:40;;;;;;;;;;;;;;;3.57;100.00;98862.28;4944487;28;19923;-81
2023/12/22 09:16:05;;;;;;;;;;;;;;;3.67;100.00;98857.63;4943344;28;20388;-81
2023/12/22 09:18:31;;;;;;;;;;;;;;;3.64;100.00;98858.59;4945121;28;20478;-89
2023/12/22 09:20:56;;;;;;;;;;;;;;;3.68;100.00;98847.09;4944771;28;19978;-81
2023/12/22 09:23:21;;;;;;;;;;;;;;;3.64;100.00;98855.97;4942746;28;20460;-82
2023/12/22 09:25:48;;;;;;;;;;;;;;;3.69;100.00;98846.22;4942756;28;20077;-81
2023/12/22 09:28:13;;;;;;;;;;;;;;;3.69;100.00;98850.59;4944667;28;20005;-82
2023/12/22 09:30:38;;;;;;;;;;;;;;;3.76;100.00;98860.84;4944342;28;20051;-79
2023/12/22 09:33:04;;;;;;;;;;;;;;;3.72;100.00;98869.72;4942931;29;19923;-81
2023/12/22 09:35:29;;;;;;;;;;;;;;;3.67;100.00;98869.00;4943419;28;20025;-83
2023/12/22 09:37:54;;;;;;;;;;;;;;;3.81;100.00;98863.31;4943473;28;19919;-80
2023/12/22 09:40:21;;;;;;;;;;;;;;;3.81;100.00;98863.31;4944378;28;19918;-88
2023/12/22 09:42:47;;;;;;;;;;;;;;;3.70;100.00;98866.28;4945814;29;19915;-85
2023/12/22 09:45:15;;;;;;;;;;;;;;;3.68;100.00;98872.47;4943999;29;20061;-81
2023/12/22 09:47:42;;;;;;;;;;;;;;;3.63;100.00;98869.97;4961392;28;19992;-85
2023/12/22 09:50:08;;;;;;;;;;;;;;;3.64;100.00;98879.56;5001124;28;19921;-83
2023/12/22 09:52:35;;;;;;;;;;;;;;;3.61;100.00;98870.00;5001969;28;19929;-85
2023/12/22 09:55:00;;;;;;;;;;;;;;;3.66;100.00;98867.25;5002517;28;19923;-83
2023/12/22 09:57:26;;;;;;;;;;;;;;;3.71;100.00;98861.88;5002210;28;20040;-82
2023/12/22 09:59:53;;;;;;;;;;;;;;;3.74;100.00;98857.41;5000965;28;20281;-81
2023/12/22 10:02:18;;;;;;;;;;;;;;;3.63;100.00;98868.19;5000745;28;20348;-84
2023/12/22 10:04:45;;;;;;;;;;;;;;;3.63;100.00;98869.97;5001906;28;19967;-83
2023/12/22 10:07:13;;;;;;;;;;;;;;;3.63;100.00;98859.50;5002231;28;20435;-83
2023/12/22 10:09:39;;;;;;;;;;;;;;;3.67;100.00;98860.25;5002030;28;19917;-82
2023/12/22 10:12:05;;;;;;;;;;;;;;;3.61;100.00;98858.69;5001962;28;20544;-82
2023/12/22 10:14:31;;;;;;;;;;;;;;;3.61;100.00;98858.69;5000908;28;19972;-83
2023/12/22 10:16:57;;;;;;;;;;;;;;;3.69;100.00;98861.94;4999730;28;19918;-82
2023/12/22 10:19:24;;;;;;;;;;;;;;;3.69;100.00;98863.72;5001487;28;19917;-88
2023/12/22 10:21:50;;;;;;;;;;;;;;;3.66;100.00;98859.41;5000686;28;19918;-83
2023/12/22 10:24:34;;;;;;;;;;;;;;;3.72;100.00;98848.75;5001857;28;20010;-83
2023/12/22 10:27:00;;;;;;;;;;;;;;;3.72;100.00;98842.63;5000646;28;19918;-87
2023/12/22 10:29:25;;;;;;;;;;;;;;;3.60;100.00;98829.00;5001107;28;19929;-90
2023/12/22 10:31:51;;;;;;;;;;;;;;;3.62;100.00;98831.56;4999193;28;20429;-88
2023/12/22 10:34:16;;;;;;;;;;;;;;;3.65;100.00;98826.22;5000421;28;19922;-89
2023/12/22 10:36:41;;;;;;;;;;;;;;;3.66;100.00;98821.88;5004561;28;20008;-83
2023/12/22 10:39:07;;;;;;;;;;;;;;;3.73;100.00;98811.13;5004886;28;19926;-86
2023/12/22 10:41:33;;;;;;;;;;;;;;;3.64;100.00;98814.06;5005042;28;20273;-87
2023/12/22 10:43:58;;;;;;;;;;;;;;;3.61;100.00;98814.16;5006463;28;19918;-87
2023/12/22 10:46:23;;;;;;;;;;;;;;;3.67;100.00;98805.22;5004197;28;19989;-87
2023/12/22 10:48:54;;;;;;;;;;;;;;;3.64;100.00;98791.31;5005151;28;20395;-89
2023/12/22 10:51:19;;;;;;;;;;;;;;;3.65;100.00;98800.03;5005120;28;20426;-85
2023/12/22 10:53:45;;;;;;;;;;;;;;;3.63;100.00;98800.09;5004087;28;19933;-86
2023/12/22 10:56:11;;;;;;;;;;;;;;;3.60;100.00;98794.94;5004904;28;19918;-82
2023/12/22 10:58:38;;;;;;;;;;;;;;;3.67;100.00;98790.38;5005547;28;19918;-83
2023/12/22 11:01:05;;;;;;;;;;;;;;;3.59;100.00;98785.38;5003803;28;20261;-86
2023/12/22 11:03:33;;;;;;;;;;;;;;;3.61;100.00;98780.09;5004800;28;19917;-82
2023/12/22 11:06:01;;;;;;;;;;;;;;;3.57;100.00;98787.16;5004533;28;19925;-85
2023/12/22 11:08:27;;;;;;;;;;;;;;;3.59;100.00;98779.25;5003871;28;19922;-83
2023/12/22 11:10:56;;;;;;;;;;;;;;;3.63;100.00;98788.75;5004833;28;19996;-85
2023/12/22 11:13:22;;;;;;;;;;;;;;;3.68;100.00;98783.38;5004955;28;19926;-84
2023/12/22 11:15:48;;;;;;;;;;;;;;;3.82;100.00;98775.94;5004123;28;19977;-85
2023/12/22 11:18:15;;;;;;;;;;;;;;;3.77;100.00;98756.91;5003992;28;19922;-90
2023/12/22 11:20:41;;;;;;;;;;;;;;;3.69;100.00;98745.81;5005128;28;20927;-83
2023/12/22 11:23:08;;;;;;;;;;;;;;;3.82;100.00;98747.97;5004758;28;19918;-86
2023/12/22 11:25:34;;;;;;;;;;;;;;;3.73;100.00;98739.53;5004371;28;19921;-82
2023/12/22 11:28:13;;;;;;;;;;;;;;;3.69;100.00;98741.41;5005005;28;19937;-87
2023/12/22 11:30:38;;;;;;;;;;;;;;;3.84;100.00;98741.84;5003357;28;19922;-88
2023/12/22 11:33:04;;;;;;;;;;;;;;;3.83;100.00;98735.75;5002966;28;19924;-81
2023/12/22 11:35:30;;;;;;;;;;;;;;;3.79;100.00;98734.13;5004963;28;19921;-83
2023/12/22 11:38:00;;;;;;;;;;;;;;;3.79;100.00;98740.19;5002957;28;20385;-85
2023/12/22 11:40:26;;;;;;;;;;;;;;;3.86;100.00;98729.53;5002927;28;19918;-86
2023/12/22 11:42:52;;;;;;;;;;;;;;;3.80;100.00;98731.44;5004208;28;19921;-83
2023/12/22 11:45:17;;;;;;;;;;;;;;;3.80;100.00;98730.59;5004184;28;19967;-82
2023/12/22 11:47:43;;;;;;;;;;;;;;;3.77;100.00;98735.94;5001950;28;19929;-84
2023/12/22 11:50:09;;;;;;;;;;;;;;;3.75;100.00;98725.50;5003962;28;19924;-84
2023/12/22 11:52:45;;;;;;;;;;;;;;;3.82;100.00;98721.75;5003827;28;19928;-84
2023/12/22 11:55:10;;;;;;;;;;;;;;;3.72;100.00;98720.34;5003184;28;19922;-81
2023/12/22 11:57:38;;;;;;;;;;;;;;;3.78;100.00;98725.41;5004007;28;20387;-82
2023/12/22 12:00:08;;;;;;;;;;;;;;;3.75;100.00;98725.50;5004345;28;19918;-83
2023/12/22 12:02:37;;;;;;;;;;;;;;;3.67;100.00;98724.91;5017169;28;19961;-82
2023/12/22 12:05:03;;;;;;;;;;;;;;;3.73;100.00;98727.28;5002988;28;19925;-85
2023/12/22 12:07:40;;;;;;;;;;;;;;;3.69;100.00;98728.31;5003603;28;20415;-81
2023/12/22 12:10:08;;;;;;;;;;;;;;;3.73;100.00;98726.44;5003586;28;19921;-82
2023/12/22 12:12:34;;;;;;;;;;;;;;;3.72;100.00;98728.22;5001880;28;19922;-82
2023/12/22 12:15:06;;;;;;;;;;;;;;;3.80;100.00;98726.19;5003847;28;19925;-81
2023/12/22 12:17:32;;;;;;;;;;;;;;;3.74;100.00;98718.53;5001191;28;20433;-81
2023/12/22 12:19:57;;;;;;;;;;;;;;;3.75;100.00;98717.63;5001648;28;20017;-82
2023/12/22 12:22:26;;;;;;;;;;;;;;;3.74;100.00;98726.41;5000316;28;20028;-90
2023/12/22 12:24:53;;;;;;;;;;;;;;;3.89;100.00;98727.66;5001955;28;19920;-91
2023/12/22 12:27:20;;;;;;;;;;;;;;;3.77;100.00;98718.44;5001530;28;20016;-91
2023/12/22 12:29:48;;;;;;;;;;;;;;;3.87;100.00;98720.75;5002708;28;20365;-81
2023/12/22 12:32:14;;;;;;;;;;;;;;;3.73;100.00;98729.91;5001079;28;19918;-80
2023/12/22 12:34:42;;;;;;;;;;;;;;;3.77;100.00;98725.44;5002136;28;19917;-92
2023/12/22 12:37:07;;;;;;;;;;;;;;;3.82;100.00;98731.41;5003372;28;19921;-86
2023/12/22 12:39:34;;;;;;;;;;;;;;;3.77;100.00;98726.31;5000833;28;19925;-88
2023/12/22 12:42:00;;;;;;;;;;;;;;;3.79;100.00;98721.00;5003380;28;19917;-91
2023/12/22 12:44:26;;;;;;;;;;;;;;;3.80;100.00;98723.59;5002331;28;20005;-82
2023/12/22 12:46:51;;;;;;;;;;;;;;;3.77;100.00;98714.97;5000266;28;19921;-88
2023/12/22 12:49:18;;;;;;;;;;;;;;;3.75;100.00;98716.75;5003391;28;19986;-88
2023/12/22 12:51:45;;;;;;;;;;;;;;;3.79;100.00;98706.13;5002374;28;20365;-92
2023/12/22 12:54:11;;;;;;;;;;;;;;;3.96;100.00;98695.09;5001764;28;19925;-89
2023/12/22 12:56:42;;;;;;;;;;;;;;;3.87;100.00;98689.31;5003590;28;19921;-92
2023/12/22 12:59:12;;;;;;;;;;;;;;;3.74;100.00;98691.47;5002721;28;19961;-86
2023/12/22 13:01:40;;;;;;;;;;;;;;;3.72;100.00;98702.00;5000737;28;20474;-91
2023/12/22 13:04:06;;;;;;;;;;;;;;;3.87;100.00;98705.03;5002248;28;20284;-90
2023/12/22 13:06:32;;;;;;;;;;;;;;;3.85;100.00;98712.09;5003375;28;19917;-81
2023/12/22 13:08:57;;;;;;;;;;;;;;;3.73;100.00;98708.09;5003029;28;19929;-87
2023/12/22 13:11:26;;;;;;;;;;;;;;;3.82;100.00;98718.28;5001740;28;19965;-89
2023/12/22 13:13:51;;;;;;;;;;;;;;;3.79;100.00;98708.75;5001499;28;19922;-82
2023/12/22 13:16:20;;;;;;;;;;;;;;;3.81;100.00;98711.31;5001227;28;19918;-79
2023/12/22 13:18:46;;;;;;;;;;;;;;;3.77;100.00;98707.97;5003064;28;19924;-79
2023/12/22 13:21:11;;;;;;;;;;;;;;;3.78;100.00;98703.56;5003006;28;19921;-79
2023/12/22 13:23:36;;;;;;;;;;;;;;;3.73;100.00;98703.72;5003235;28;19918;-84
2023/12/22 13:26:02;;;;;;;;;;;;;;;3.74;100.00;98709.81;5002676;28;19917;-82
2023/12/22 13:28:28;;;;;;;;;;;;;;;3.71;100.00;98723.88;5002278;28;19976;-88
2023/12/22 13:30:53;;;;;;;;;;;;;;;3.68;100.00;98730.97;5001537;28;19922;-89
2023/12/22 13:33:19;;;;;;;;;;;;;;;3.71;100.00;98733.50;5000665;28;19937;-84
2023/12/22 13:35:46;;;;;;;;;;;;;;;3.73;100.00;98735.16;5002216;28;19921;-82
2023/12/22 13:38:12;;;;;;;;;;;;;;;3.70;100.00;98734.41;5001058;28;20395;-85
2023/12/22 13:40:38;;;;;;;;;;;;;;;3.64;100.00;98736.31;5001278;28;19922;-83
2023/12/22 13:43:03;;;;;;;;;;;;;;;3.79;100.00;98727.09;5002298;28;19922;-86
2023/12/22 13:45:30;;;;;;;;;;;;;;;3.77;100.00;98734.16;5003259;28;19913;-94
2023/12/22 13:47:55;;;;;;;;;;;;;;;3.77;100.00;98738.56;5001191;28;19949;-92
2023/12/22 13:50:23;;;;;;;;;;;;;;;3.74;100.00;98736.88;5002628;28;19968;-87
2023/12/22 13:52:50;;;;;;;;;;;;;;;3.70;100.00;98735.28;5001471;28;19921;-91
2023/12/22 13:55:16;;;;;;;;;;;;;;;3.69;100.00;98736.16;5002066;28;19925;-82
2023/12/22 13:57:41;;;;;;;;;;;;;;;3.70;100.00;98731.78;5001719;28;20289;-88
2023/12/22 14:00:07;;;;;;;;;;;;;;;3.75;100.00;98746.47;5000830;28;20095;-84
2023/12/22 14:02:32;;;;;;;;;;;;;;;3.74;100.00;98731.63;5002058;28;19949;-88
2023/12/22 14:04:57;;;;;;;;;;;;;;;3.82;100.00;98750.59;5002116;28;19918;-88
2023/12/22 14:07:22;;;;;;;;;;;;;;;3.78;100.00;98748.09;5001581;28;20345;-84
2023/12/22 14:09:48;;;;;;;;;;;;;;;3.81;100.00;98750.63;5002180;28;19976;-85
2023/12/22 14:12:13;;;;;;;;;;;;;;;3.82;100.00;98757.59;5005504;28;19918;-94
2023/12/22 14:14:40;;;;;;;;;;;;;;;3.76;100.00;98756.00;5006084;28;19918;-88
2023/12/22 14:17:05;;;;;;;;;;;;;;;3.91;100.00;98745.94;5006030;28;19971;-90
2023/12/22 14:19:32;;;;;;;;;;;;;;;3.76;100.00;98761.25;5005817;28;19918;-85
2023/12/22 14:21:58;;;;;;;;;;;;;;;3.76;100.00;98761.25;5006410;28;19924;-91
2023/12/22 14:24:23;;;;;;;;;;;;;;;3.79;100.00;98769.03;5005446;28;19922;-85
2023/12/22 14:26:55;;;;;;;;;;;;;;;3.87;100.00;98765.31;5005950;28;19933;-87
2023/12/22 14:29:22;;;;;;;;;;;;;;;3.79;100.00;98763.78;5005532;28;19933;-88
2023/12/22 14:31:48;;;;;;;;;;;;;;;3.86;100.00;98754.00;5004176;28;19928;-85
2023/12/22 14:34:13;;;;;;;;;;;;;;;3.84;100.00;98766.25;5005840;28;19922;-85
2023/12/22 14:36:39;;;;;;;;;;;;;;;3.75;100.00;98764.81;5005424;28;20387;-85
2023/12/22 14:39:05;;;;;;;;;;;;;;;3.79;100.00;98763.78;5005119;28;20441;-86
2023/12/22 14:41:30;;;;;;;;;;;;;;;3.70;100.00;98776.31;5005256;28;19924;-85
2023/12/22 14:43:55;;;;;;;;;;;;;;;3.72;100.00;98764.91;5005443;28;20316;-84
2023/12/22 14:46:20;;;;;;;;;;;;;;;3.73;100.00;98777.06;5002789;28;19918;-85
2023/12/22 14:48:46;;;;;;;;;;;;;;;3.75;100.00;98780.53;5005035;28;19961;-87
2023/12/22 14:51:11;;;;;;;;;;;;;;;3.71;100.00;98784.13;5005546;28;19917;-85
2023/12/22 14:53:36;;;;;;;;;;;;;;;3.70;100.00;98784.19;5004840;28;19921;-84
2023/12/22 14:56:01;;;;;;;;;;;;;;;3.67;100.00;98776.41;5003481;28;20359;-84
2023/12/22 14:58:27;;;;;;;;;;;;;;;3.88;100.00;98772.25;5003789;28;20483;-88
2023/12/22 15:00:52;;;;;;;;;;;;;;;3.72;100.00;98775.38;5004967;28;19917;-85
2023/12/22 15:03:17;;;;;;;;;;;;;;;3.79;100.00;98784.75;5004399;28;20393;-83
2023/12/22 15:05:42;;;;;;;;;;;;;;;3.65;100.00;98792.19;5004706;28;20289;-80
2023/12/22 15:08:07;;;;;;;;;;;;;;;3.71;100.00;98789.38;5003861;28;20280;-87
2023/12/22 15:10:33;;;;;;;;;;;;;;;3.70;100.00;98787.69;5005388;28;20292;-83
2023/12/22 15:12:58;;;;;;;;;;;;;;;3.79;100.00;98797.84;5004966;28;19925;-84
2023/12/22 15:15:23;;;;;;;;;;;;;;;3.70;100.00;98798.16;5004861;28;20048;-87
2023/12/22 15:17:49;;;;;;;;;;;;;;;3.64;100.00;98804.44;5003251;28;19921;-86
2023/12/22 15:20:14;;;;;;;;;;;;;;;3.71;100.00;98809.50;5005025;28;20004;-83
2023/12/22 15:22:39;;;;;;;;;;;;;;;3.69;100.00;98806.06;5003678;28;20362;-86
2023/12/22 15:25:05;;;;;;;;;;;;;;;3.75;100.00;98834.66;5002408;28;20397;-89
2023/12/22 15:27:31;;;;;;;;;;;;;;;3.73;100.00;98839.13;5004739;28;20000;-88
2023/12/22 15:29:56;;;;;;;;;;;;;;;3.80;100.00;98845.91;5004360;28;19925;-85
2023/12/22 15:32:21;;;;;;;;;;;;;;;3.72;100.00;98851.38;5003063;28;20016;-85
2023/12/22 15:34:46;;;;;;;;;;;;;;;3.75;100.00;98853.91;5004879;28;19987;-84
2023/12/22 15:37:12;;;;;;;;;;;;;;;3.69;100.00;98846.22;5004543;28;20013;-87
2023/12/22 15:39:38;;;;;;;;;;;;;;;3.68;100.00;98841.88;5004406;28;19929;-87
2023/12/22 15:42:04;;;;;;;;;;;;;;;3.65;100.00;98836.72;5003468;28;19921;-88
2023/12/22 15:44:29;;;;;;;;;;;;;;;3.72;100.00;98840.00;5006124;28;19922;-96
2023/12/22 15:46:54;;;;;;;;;;;;;;;3.73;100.00;98837.34;5003088;28;19917;-91
2023/12/22 15:49:19;;;;;;;;;;;;;;;3.79;100.00;98844.16;5004189;28;20320;-88
2023/12/22 15:51:45;;;;;;;;;;;;;;;3.75;100.00;98851.28;5004012;28;19918;-85
2023/12/22 15:54:10;;;;;;;;;;;;;;;3.68;100.00;98849.72;5003972;28;20324;-86
2023/12/22 15:56:35;;;;;;;;;;;;;;;3.66;100.00;98859.41;5004221;28;20292;-87
2023/12/22 15:59:01;;;;;;;;;;;;;;;3.64;100.00;98856.81;5004103;28;20024;-88
2023/12/22 16:01:26;;;;;;;;;;;;;;;3.60;100.00;98851.72;5001421;28;19917;-91
2023/12/22 16:03:52;;;;;;;;;;;;;;;3.61;100.00;98858.69;5005070;28;19917;-87
2023/12/22 16:06:17;;;;;;;;;;;;;;;3.65;100.00;98862.91;5003990;28;19922;-93
2023/12/22 16:08:43;;;;;;;;;;;;;;;3.68;100.00;98857.59;5002788;28;19940;-88
2023/12/22 16:11:09;;;;;;;;;;;;;;;3.62;100.00;98865.63;5003882;28;19980;-89
2023/12/22 16:13:34;;;;;;;;;;;;;;;3.68;100.00;98868.06;5004095;28;19918;-87
2023/12/22 16:16:00;;;;;;;;;;;;;;;3.62;100.00;98878.72;5000712;28;19918;-85
2023/12/22 16:18:26;;;;;;;;;;;;;;;3.66;100.00;98872.50;5003311;28;20523;-88
2023/12/22 16:20:51;;;;;;;;;;;;;;;3.66;100.00;98866.41;5004055;28;20004;-87
2023/12/22 16:23:21;;;;;;;;;;;;;;;3.64;100.00;98866.47;5003842;28;19917;-87
2023/12/22 16:25:48;;;;;;;;;;;;;;;3.67;100.00;98866.38;5002740;28;19960;-86
2023/12/22 16:28:13;;;;;;;;;;;;;;;3.70;100.00;98862.78;5002577;28;19996;-84
2023/12/22 16:30:38;;;;;;;;;;;;;;;3.70;100.00;98873.25;5004189;28;20450;-85
2023/12/22 16:33:04;;;;;;;;;;;;;;;3.71;100.00;98875.00;5001678;28;20024;-85
2023/12/22 16:35:58;;;;;;;;;;;;;;;3.73;100.00;98889.75;5003604;28;19918;-88
2023/12/22 16:38:25;;;;;;;;;;;;;;;3.77;100.00;98901.03;5002625;28;19925;-84
2023/12/22 16:40:51;;;;;;;;;;;;;;;3.73;100.00;98908.09;5002493;28;19918;-83
2023/12/22 16:43:16;;;;;;;;;;;;;;;3.67;100.00;98913.53;5003045;28;19917;-85
2023/12/22 16:45:41;;;;;;;;;;;;;;;3.68;100.00;98909.13;5003450;28;19917;-84
2023/12/22 16:48:06;;;;;;;;;;;;;;;3.79;100.00;98901.81;5001668;28;20021;-83
2023/12/22 16:50:32;;;;;;;;;;;;;;;3.79;100.00;98907.91;5003020;28;19918;-82
2023/12/22 16:52:57;;;;;;;;;;;;;;;3.76;100.00;98913.25;5002674;28;19980;-81
2023/12/22 16:55:23;;;;;;;;;;;;;;;3.71;100.00;98911.66;5003349;28;19918;-82
2023/12/22 16:57:48;;;;;;;;;;;;;;;3.74;100.00;98920.28;5002886;28;20012;-91
2023/12/22 17:00:14;;;;;;;;;;;;;;;3.74;100.00;98920.28;5004006;28;20012;-83
2023/12/22 17:02:39;;;;;;;;;;;;;;;3.69;100.00;98927.44;5001411;28;19925;-80
2023/12/22 17:05:05;;;;;;;;;;;;;;;3.64;100.00;98924.94;5002401;28;19922;-82
2023/12/22 17:07:36;;;;;;;;;;;;;;;3.68;100.00;98924.84;5002496;28;19948;-86
2023/12/22 17:10:01;;;;;;;;;;;;;;;3.66;100.00;98932.75;5002585;28;20450;-80
2023/12/22 17:12:26;;;;;;;;;;;;;;;3.73;100.00;98934.28;5001605;28;19957;-82
2023/12/22 17:14:52;;;;;;;;;;;;;;;3.69;100.00;98932.69;5002364;28;20380;-84
2023/12/22 17:17:17;;;;;;;;;;;;;;;3.67;100.00;98929.25;4999751;28;20361;-84
2023/12/22 17:19:42;;;;;;;;;;;;;;;3.69;100.00;98932.69;5001165;28;19917;-83
2023/12/22 17:22:07;;;;;;;;;;;;;;;3.73;100.00;98936.91;5002379;28;19965;-85
2023/12/22 17:24:33;;;;;;;;;;;;;;;3.69;100.00;98952.78;5002269;28;19918;-84
2023/12/22 17:26:58;;;;;;;;;;;;;;;3.66;100.00;98942.41;5002317;28;19926;-91
2023/12/22 17:29:23;;;;;;;;;;;;;;;3.75;100.00;98937.75;5002692;28;20056;-86
2023/12/22 17:31:51;;;;;;;;;;;;;;;3.71;100.00;98940.50;5000395;28;19929;-87
2023/12/22 17:34:17;;;;;;;;;;;;;;;3.73;100.00;98936.06;5002069;28;20272;-84
2023/12/22 17:36:42;;;;;;;;;;;;;;;3.61;100.00;98934.66;5002001;28;20373;-86
2023/12/22 17:39:08;;;;;;;;;;;;;;;3.68;100.00;98935.34;5001177;28;19933;-87
2023/12/22 17:41:33;;;;;;;;;;;;;;;3.69;100.00;98932.69;5002336;28;19917;-91
2023/12/22 17:43:58;;;;;;;;;;;;;;;3.71;100.00;98935.25;5000883;28;19940;-85
2023/12/22 17:46:23;;;;;;;;;;;;;;;3.80;100.00;98948.09;5003992;28;19973;-81
2023/12/22 17:48:49;;;;;;;;;;;;;;;3.77;100.00;98962.13;5005898;28;19928;-88
2023/12/22 17:51:14;;;;;;;;;;;;;;;3.68;100.00;98951.06;5004895;28;19921;-88